sensor_id;sensor_type;location;lat;lon;timestamp;pressure;altitude;pressure_sealevel;temperature;humidity
36630;BME280;36256;42.154;23.002;2023-06-01T00:02:24;97377.88;;;16.33;100.00
36630;BME280;36256;42.154;23.002;2023-06-01T00:04:50;97370.16;;;16.34;100.00
36630;BME280;36256;42.154;23.002;2023-06-01T00:07:18;97355.59;;;16.26;100.00
36630;BME280;36256;42.154;23.002;2023-06-01T00:09:45;97377.28;;;16.29;100.00
36630;BME280;36256;42.154;23.002;2023-06-01T00:12:11;97366.16;;;16.26;100.00
36630;BME280;36256;42.154;23.002;2023-06-01T00:14:38;97367.13;;;16.23;100.00
36630;BME280;36256;42.154;23.002;2023-06-01T00:17:05;97368.31;;;16.16;100.00
36630;BME280;36256;42.154;23.002;2023-06-01T00:19:34;97371.25;;;16.22;100.00
36630;BME280;36256;42.154;23.002;2023-06-01T00:22:01;97365.50;;;16.16;100.00
36630;BME280;36256;42.154;23.002;2023-06-01T00:24:28;97364.41;;;16.14;100.00
36630;BME280;36256;42.154;23.002;2023-06-01T00:26:54;97364.03;;;16.21;100.00
36630;BME280;36256;42.154;23.002;2023-06-01T00:29:21;97364.59;;;16.25;100.00
36630;BME280;36256;42.154;23.002;2023-06-01T00:31:49;97356.69;;;16.14;100.00
36630;BME280;36256;42.154;23.002;2023-06-01T00:34:15;97365.13;;;16.09;100.00
36630;BME280;36256;42.154;23.002;2023-06-01T00:36:42;97366.78;;;16.01;100.00
36630;BME280;36256;42.154;23.002;2023-06-01T00:39:09;97365.22;;;16.00;100.00
36630;BME280;36256;42.154;23.002;2023-06-01T00:41:36;97368.03;;;16.00;100.00
36630;BME280;36256;42.154;23.002;2023-06-01T00:44:03;97370.88;;;16.00;100.00
36630;BME280;36256;42.154;23.002;2023-06-01T00:46:30;97365.78;;;16.04;100.00
36630;BME280;36256;42.154;23.002;2023-06-01T00:48:58;97363.63;;;15.99;100.00
36630;BME280;36256;42.154;23.002;2023-06-01T00:51:25;97339.34;;;15.78;100.00
36630;BME280;36256;42.154;23.002;2023-06-01T00:53:52;97357.50;;;15.86;100.00
36630;BME280;36256;42.154;23.002;2023-06-01T00:56:19;97363.06;;;15.80;100.00
36630;BME280;36256;42.154;23.002;2023-06-01T00:58:46;97364.44;;;15.85;100.00
36630;BME280;36256;42.154;23.002;2023-06-01T01:01:13;97364.44;;;15.85;100.00
36630;BME280;36256;42.154;23.002;2023-06-01T01:03:47;97359.94;;;15.93;100.00
36630;BME280;36256;42.154;23.002;2023-06-01T01:12:00;97362.66;;;16.02;100.00
36630;BME280;36256;42.154;23.002;2023-06-01T01:14:48;97359.56;;;16.00;100.00
36630;BME280;36256;42.154;23.002;2023-06-01T01:17:28;97363.84;;;15.95;100.00
36630;BME280;36256;42.154;23.002;2023-06-01T01:20:06;97366.78;;;16.01;100.00
36630;BME280;36256;42.154;23.002;2023-06-01T01:27:59;97366.59;;;15.90;100.00
36630;BME280;36256;42.154;23.002;2023-06-01T01:30:36;97368.84;;;15.86;100.00
36630;BME280;36256;42.154;23.002;2023-06-01T01:33:04;97364.06;;;15.92;100.00
36630;BME280;36256;42.154;23.002;2023-06-01T01:35:31;97364.34;;;15.94;100.00
36630;BME280;36256;42.154;23.002;2023-06-01T01:37:59;97364.63;;;15.96;100.00
36630;BME280;36256;42.154;23.002;2023-06-01T01:40:26;97354.84;;;15.97;100.00
36630;BME280;36256;42.154;23.002;2023-06-01T01:42:53;97358.75;;;15.99;100.00
36630;BME280;36256;42.154;23.002;2023-06-01T01:45:20;97361.13;;;16.01;100.00
36630;BME280;36256;42.154;23.002;2023-06-01T01:48:28;97353.31;;;15.96;100.00
36630;BME280;36256;42.154;23.002;2023-06-01T01:51:00;97354.69;;;15.86;100.00
36630;BME280;36256;42.154;23.002;2023-06-01T01:53:29;97370.09;;;15.85;100.00
36630;BME280;36256;42.154;23.002;2023-06-01T01:55:58;97352.16;;;15.73;100.00
36630;BME280;36256;42.154;23.002;2023-06-01T01:58:25;97372.13;;;15.84;100.00
36630;BME280;36256;42.154;23.002;2023-06-01T02:00:53;97365.50;;;15.73;100.00
36630;BME280;36256;42.154;23.002;2023-06-01T02:03:21;97377.31;;;15.86;100.00
36630;BME280;36256;42.154;23.002;2023-06-01T02:05:47;97372.91;;;15.85;100.00
36630;BME280;36256;42.154;23.002;2023-06-01T02:08:14;97378.28;;;15.83;100.00
36630;BME280;36256;42.154;23.002;2023-06-01T02:10:41;97374.19;;;15.84;100.00
36630;BME280;36256;42.154;23.002;2023-06-01T02:13:08;97379.84;;;15.84;100.00
36630;BME280;36256;42.154;23.002;2023-06-01T02:15:34;97371.66;;;15.86;100.00
36630;BME280;36256;42.154;23.002;2023-06-01T02:18:01;97374.97;;;15.84;100.00
36630;BME280;36256;42.154;23.002;2023-06-01T02:20:28;97375.06;;;15.90;100.00
36630;BME280;36256;42.154;23.002;2023-06-01T02:22:55;97369.13;;;15.88;100.00
36630;BME280;36256;42.154;23.002;2023-06-01T02:25:22;97376.53;;;15.85;100.00
36630;BME280;36256;42.154;23.002;2023-06-01T02:27:48;97380.81;;;15.81;100.00
36630;BME280;36256;42.154;23.002;2023-06-01T02:30:15;97381.78;;;15.78;100.00
36630;BME280;36256;42.154;23.002;2023-06-01T02:32:42;97382.09;;;15.80;100.00
36630;BME280;36256;42.154;23.002;2023-06-01T02:35:12;97382.69;;;15.84;100.00
36630;BME280;36256;42.154;23.002;2023-06-01T02:37:39;97375.25;;;15.86;100.00
36630;BME280;36256;42.154;23.002;2023-06-01T02:40:07;97378.88;;;15.87;100.00
36630;BME280;36256;42.154;23.002;2023-06-01T02:42:38;97375.38;;;15.92;100.00
36630;BME280;36256;42.154;23.002;2023-06-01T02:45:07;97375.94;;;15.96;100.00
36630;BME280;36256;42.154;23.002;2023-06-01T02:47:35;97387.56;;;15.98;100.00
36630;BME280;36256;42.154;23.002;2023-06-01T02:50:01;97382.00;;;15.89;100.00
36630;BME280;36256;42.154;23.002;2023-06-01T02:52:28;97393.31;;;15.89;100.00
36630;BME280;36256;42.154;23.002;2023-06-01T02:54:55;97391.75;;;15.88;100.00
36630;BME280;36256;42.154;23.002;2023-06-01T02:57:21;97393.50;;;15.85;100.00
36630;BME280;36256;42.154;23.002;2023-06-01T02:59:48;97389.59;;;15.83;100.00
36630;BME280;36256;42.154;23.002;2023-06-01T03:02:15;97388.06;;;15.82;100.00
36630;BME280;36256;42.154;23.002;2023-06-01T03:04:42;97382.41;;;15.82;100.00
36630;BME280;36256;42.154;23.002;2023-06-01T03:07:09;97384.22;;;15.85;100.00
36630;BME280;36256;42.154;23.002;2023-06-01T03:09:36;97387.66;;;15.89;100.00
36630;BME280;36256;42.154;23.002;2023-06-01T03:12:03;97382.09;;;15.94;100.00
36630;BME280;36256;42.154;23.002;2023-06-01T03:14:30;97385.69;;;15.95;100.00
36630;BME280;36256;42.154;23.002;2023-06-01T03:16:57;97388.81;;;15.97;100.00
36630;BME280;36256;42.154;23.002;2023-06-01T03:19:23;97391.34;;;15.95;100.00
36630;BME280;36256;42.154;23.002;2023-06-01T03:21:50;97383.16;;;15.97;100.00
36630;BME280;36256;42.154;23.002;2023-06-01T03:24:18;97399.97;;;16.00;100.00
36630;BME280;36256;42.154;23.002;2023-06-01T03:26:44;97390.97;;;16.02;100.00
36630;BME280;36256;42.154;23.002;2023-06-01T03:29:11;97398.97;;;16.03;100.00
36630;BME280;36256;42.154;23.002;2023-06-01T03:31:38;97396.63;;;16.02;100.00
36630;BME280;36256;42.154;23.002;2023-06-01T03:34:05;97394.38;;;16.06;100.00
36630;BME280;36256;42.154;23.002;2023-06-01T03:36:32;97393.88;;;16.07;100.00
36630;BME280;36256;42.154;23.002;2023-06-01T03:38:59;97403.66;;;16.06;100.00
36630;BME280;36256;42.154;23.002;2023-06-01T03:41:26;97405.81;;;16.11;100.00
36630;BME280;36256;42.154;23.002;2023-06-01T03:43:53;97405.72;;;16.06;100.00
36630;BME280;36256;42.154;23.002;2023-06-01T03:46:20;97405.22;;;16.07;100.00
36630;BME280;36256;42.154;23.002;2023-06-01T03:48:47;97403.09;;;16.02;100.00
36630;BME280;36256;42.154;23.002;2023-06-01T03:51:13;97402.09;;;15.91;100.00
36630;BME280;36256;42.154;23.002;2023-06-01T03:53:40;97415.78;;;15.92;100.00
36630;BME280;36256;42.154;23.002;2023-06-01T03:56:07;97405.34;;;15.98;100.00
36630;BME280;36256;42.154;23.002;2023-06-01T03:58:33;97406.09;;;15.99;100.00
36630;BME280;36256;42.154;23.002;2023-06-01T04:01:00;97405.78;;;15.97;100.00
36630;BME280;36256;42.154;23.002;2023-06-01T04:03:27;97410.78;;;16.02;100.00
36630;BME280;36256;42.154;23.002;2023-06-01T04:05:54;97412.66;;;16.05;100.00
36630;BME280;36256;42.154;23.002;2023-06-01T04:08:26;97408.44;;;16.15;100.00
36630;BME280;36256;42.154;23.002;2023-06-01T04:10:53;97408.53;;;16.20;100.00
36630;BME280;36256;42.154;23.002;2023-06-01T04:13:20;97414.59;;;16.28;100.00
36630;BME280;36256;42.154;23.002;2023-06-01T04:15:51;97416.94;;;16.29;100.00
36630;BME280;36256;42.154;23.002;2023-06-01T04:18:17;97416.53;;;16.36;100.00
36630;BME280;36256;42.154;23.002;2023-06-01T04:20:44;97415.38;;;16.43;100.00
36630;BME280;36256;42.154;23.002;2023-06-01T04:23:11;97421.63;;;16.47;100.00
36630;BME280;36256;42.154;23.002;2023-06-01T04:25:38;97426.31;;;16.50;100.00
36630;BME280;36256;42.154;23.002;2023-06-01T04:28:05;97413.59;;;16.45;100.00
36630;BME280;36256;42.154;23.002;2023-06-01T04:30:32;97421.22;;;16.54;100.00
36630;BME280;36256;42.154;23.002;2023-06-01T04:32:58;97419.84;;;16.64;100.00
36630;BME280;36256;42.154;23.002;2023-06-01T04:35:26;97422.47;;;16.68;100.00
36630;BME280;36256;42.154;23.002;2023-06-01T04:37:53;97428.78;;;16.77;100.00
36630;BME280;36256;42.154;23.002;2023-06-01T04:40:20;97433.88;;;16.73;100.00
36630;BME280;36256;42.154;23.002;2023-06-01T04:42:47;97433.59;;;16.71;100.00
36630;BME280;36256;42.154;23.002;2023-06-01T04:45:25;97428.81;;;16.63;100.00
36630;BME280;36256;42.154;23.002;2023-06-01T04:47:52;97431.47;;;16.66;100.00
36630;BME280;36256;42.154;23.002;2023-06-01T04:50:18;97435.94;;;16.73;100.00
36630;BME280;36256;42.154;23.002;2023-06-01T04:52:46;97430.38;;;16.78;100.00
36630;BME280;36256;42.154;23.002;2023-06-01T04:55:15;97434.63;;;16.88;100.00
36630;BME280;36256;42.154;23.002;2023-06-01T04:57:43;97435.41;;;16.89;100.00
36630;BME280;36256;42.154;23.002;2023-06-01T05:00:11;97438.91;;;16.98;100.00
36630;BME280;36256;42.154;23.002;2023-06-01T05:02:40;97441.03;;;17.03;100.00
36630;BME280;36256;42.154;23.002;2023-06-01T05:05:08;97432.41;;;17.12;100.00
36630;BME280;36256;42.154;23.002;2023-06-01T05:07:36;97425.72;;;17.15;100.00
36630;BME280;36256;42.154;23.002;2023-06-01T05:10:04;97442.22;;;17.32;100.00
36630;BME280;36256;42.154;23.002;2023-06-01T05:12:33;97445.91;;;17.38;100.00
36630;BME280;36256;42.154;23.002;2023-06-01T05:15:00;97439.03;;;17.44;100.00
36630;BME280;36256;42.154;23.002;2023-06-01T05:17:27;97443.97;;;17.49;100.00
36630;BME280;36256;42.154;23.002;2023-06-01T05:19:53;97438.50;;;17.46;100.00
36630;BME280;36256;42.154;23.002;2023-06-01T05:22:20;97439.13;;;17.50;100.00
36630;BME280;36256;42.154;23.002;2023-06-01T05:24:47;97438.13;;;17.53;100.00
36630;BME280;36256;42.154;23.002;2023-06-01T05:27:14;97438.50;;;17.46;100.00
36630;BME280;36256;42.154;23.002;2023-06-01T05:29:41;97437.50;;;17.49;100.00
36630;BME280;36256;42.154;23.002;2023-06-01T05:32:08;97442.00;;;17.55;100.00
36630;BME280;36256;42.154;23.002;2023-06-01T05:34:35;97439.81;;;17.65;100.00
36630;BME280;36256;42.154;23.002;2023-06-01T05:37:02;97436.19;;;17.64;100.00
36630;BME280;36256;42.154;23.002;2023-06-01T05:39:30;97441.34;;;17.46;100.00
36630;BME280;36256;42.154;23.002;2023-06-01T05:41:57;97451.53;;;17.52;100.00
36630;BME280;36256;42.154;23.002;2023-06-01T05:44:24;97430.72;;;17.41;100.00
36630;BME280;36256;42.154;23.002;2023-06-01T05:46:51;97420.50;;;17.28;100.00
36630;BME280;36256;42.154;23.002;2023-06-01T05:49:19;97442.91;;;17.47;100.00
36630;BME280;36256;42.154;23.002;2023-06-01T05:51:46;97442.78;;;17.56;100.00
36630;BME280;36256;42.154;23.002;2023-06-01T05:54:13;97444.00;;;17.69;100.00
36630;BME280;36256;42.154;23.002;2023-06-01T05:56:39;97446.91;;;17.75;100.00
36630;BME280;36256;42.154;23.002;2023-06-01T05:59:11;97453.41;;;17.81;100.00
36630;BME280;36256;42.154;23.002;2023-06-01T06:01:37;97448.47;;;17.76;100.00
36630;BME280;36256;42.154;23.002;2023-06-01T06:04:05;97435.25;;;17.73;100.00
36630;BME280;36256;42.154;23.002;2023-06-01T06:06:31;97435.31;;;17.78;100.00
36630;BME280;36256;42.154;23.002;2023-06-01T06:08:58;97443.81;;;17.78;100.00
36630;BME280;36256;42.154;23.002;2023-06-01T06:11:25;97443.06;;;17.78;100.00
36630;BME280;36256;42.154;23.002;2023-06-01T06:13:52;97440.72;;;17.76;100.00
36630;BME280;36256;42.154;23.002;2023-06-01T06:16:19;97443.97;;;17.89;100.00
36630;BME280;36256;42.154;23.002;2023-06-01T06:18:46;97441.75;;;17.99;100.00
36630;BME280;36256;42.154;23.002;2023-06-01T06:21:13;97443.66;;;18.08;100.00
36630;BME280;36256;42.154;23.002;2023-06-01T06:23:43;97444.22;;;18.12;100.00
36630;BME280;36256;42.154;23.002;2023-06-01T06:26:11;97451.09;;;18.05;100.00
36630;BME280;36256;42.154;23.002;2023-06-01T06:28:38;97450.97;;;17.94;100.00
36630;BME280;36256;42.154;23.002;2023-06-01T06:31:04;97448.84;;;17.89;100.00
36630;BME280;36256;42.154;23.002;2023-06-01T06:33:31;97442.06;;;18.07;100.00
36630;BME280;36256;42.154;23.002;2023-06-01T06:35:58;97442.88;;;18.07;100.00
36630;BME280;36256;42.154;23.002;2023-06-01T06:38:24;97443.28;;;18.00;100.00
36630;BME280;36256;42.154;23.002;2023-06-01T06:40:51;97447.59;;;17.90;100.00
36630;BME280;36256;42.154;23.002;2023-06-01T06:43:18;97442.13;;;17.86;100.00
36630;BME280;36256;42.154;23.002;2023-06-01T06:45:44;97440.91;;;17.93;100.00
36630;BME280;36256;42.154;23.002;2023-06-01T06:48:11;97432.72;;;18.00;100.00
36630;BME280;36256;42.154;23.002;2023-06-01T06:50:38;97428.25;;;17.94;100.00
36630;BME280;36256;42.154;23.002;2023-06-01T06:53:08;97433.06;;;18.08;100.00
36630;BME280;36256;42.154;23.002;2023-06-01T06:55:34;97439.09;;;18.16;100.00
36630;BME280;36256;42.154;23.002;2023-06-01T06:58:02;97431.22;;;18.31;100.00
36630;BME280;36256;42.154;23.002;2023-06-01T07:00:28;97432.06;;;18.37;100.00
36630;BME280;36256;42.154;23.002;2023-06-01T07:02:56;97437.84;;;18.22;100.00
36630;BME280;36256;42.154;23.002;2023-06-01T07:05:23;97440.50;;;18.31;100.00
36630;BME280;36256;42.154;23.002;2023-06-01T07:07:49;97439.81;;;18.42;100.00
36630;BME280;36256;42.154;23.002;2023-06-01T07:10:17;97438.88;;;18.45;100.00
36630;BME280;36256;42.154;23.002;2023-06-01T07:12:44;97430.91;;;18.54;100.00
36630;BME280;36256;42.154;23.002;2023-06-01T07:15:11;97437.50;;;18.71;100.00
36630;BME280;36256;42.154;23.002;2023-06-01T07:17:38;97430.16;;;18.91;100.00
36630;BME280;36256;42.154;23.002;2023-06-01T07:20:07;97415.94;;;18.91;100.00
36630;BME280;36256;42.154;23.002;2023-06-01T07:22:35;97431.25;;;18.99;100.00
36630;BME280;36256;42.154;23.002;2023-06-01T07:25:02;97435.19;;;19.07;100.00
36630;BME280;36256;42.154;23.002;2023-06-01T07:27:29;97431.41;;;19.26;100.00
36630;BME280;36256;42.154;23.002;2023-06-01T07:29:56;97420.69;;;19.47;100.00
36630;BME280;36256;42.154;23.002;2023-06-01T07:32:24;97417.19;;;19.74;100.00
36630;BME280;36256;42.154;23.002;2023-06-01T07:34:51;97425.50;;;19.94;100.00
36630;BME280;36256;42.154;23.002;2023-06-01T07:37:18;97423.69;;;19.91;100.00
36630;BME280;36256;42.154;23.002;2023-06-01T07:39:48;97416.28;;;20.32;100.00
36630;BME280;36256;42.154;23.002;2023-06-01T07:42:15;97421.22;;;20.43;100.00
36630;BME280;36256;42.154;23.002;2023-06-01T07:44:42;97409.78;;;20.76;100.00
36630;BME280;36256;42.154;23.002;2023-06-01T07:47:09;97405.66;;;21.05;95.04
36630;BME280;36256;42.154;23.002;2023-06-01T07:49:36;97405.34;;;21.14;99.95
36630;BME280;36256;42.154;23.002;2023-06-01T07:52:03;97385.09;;;21.23;96.02
36630;BME280;36256;42.154;23.002;2023-06-01T07:54:33;97380.41;;;21.31;94.00
36630;BME280;36256;42.154;23.002;2023-06-01T07:57:00;97391.53;;;21.40;94.57
36630;BME280;36256;42.154;23.002;2023-06-01T07:59:30;97392.84;;;21.39;92.75
36630;BME280;36256;42.154;23.002;2023-06-01T08:01:57;97383.47;;;21.44;95.07
36630;BME280;36256;42.154;23.002;2023-06-01T08:04:25;97380.06;;;21.46;92.54
36630;BME280;36256;42.154;23.002;2023-06-01T08:06:53;97387.03;;;21.61;94.29
36630;BME280;36256;42.154;23.002;2023-06-01T08:09:20;97374.47;;;21.86;96.38
36630;BME280;36256;42.154;23.002;2023-06-01T08:11:48;97374.31;;;21.57;93.15
36630;BME280;36256;42.154;23.002;2023-06-01T08:14:16;97380.56;;;21.55;93.40
36630;BME280;36256;42.154;23.002;2023-06-01T08:16:43;97365.25;;;21.58;94.30
36630;BME280;36256;42.154;23.002;2023-06-01T08:19:09;97377.31;;;21.92;98.36
36630;BME280;36256;42.154;23.002;2023-06-01T08:21:36;97361.66;;;21.99;91.79
36630;BME280;36256;42.154;23.002;2023-06-01T08:24:03;97377.78;;;21.96;91.22
36630;BME280;36256;42.154;23.002;2023-06-01T08:26:30;97378.06;;;21.93;94.99
36630;BME280;36256;42.154;23.002;2023-06-01T08:28:57;97365.59;;;21.96;95.39
36630;BME280;36256;42.154;23.002;2023-06-01T08:31:24;97360.78;;;22.15;92.84
36630;BME280;36256;42.154;23.002;2023-06-01T08:33:52;97351.28;;;22.31;90.59
36630;BME280;36256;42.154;23.002;2023-06-01T08:36:19;97356.34;;;22.49;90.99
36630;BME280;36256;42.154;23.002;2023-06-01T08:38:48;97351.31;;;22.60;87.56
36630;BME280;36256;42.154;23.002;2023-06-01T08:44:03;97335.94;;;22.93;83.70
36630;BME280;36256;42.154;23.002;2023-06-01T08:46:32;97334.72;;;22.83;86.64
36630;BME280;36256;42.154;23.002;2023-06-01T08:48:59;97334.84;;;22.96;82.66
36630;BME280;36256;42.154;23.002;2023-06-01T08:51:26;97333.28;;;23.19;85.96
36630;BME280;36256;42.154;23.002;2023-06-01T08:53:55;97332.34;;;23.35;84.45
36630;BME280;36256;42.154;23.002;2023-06-01T08:56:23;97318.19;;;23.43;75.08
36630;BME280;36256;42.154;23.002;2023-06-01T08:58:50;97325.53;;;23.38;75.61
36630;BME280;36256;42.154;23.002;2023-06-01T09:01:19;97318.84;;;23.30;66.86
36630;BME280;36256;42.154;23.002;2023-06-01T09:03:51;97317.03;;;23.27;71.29
36630;BME280;36256;42.154;23.002;2023-06-01T09:06:18;97298.78;;;23.30;68.24
36630;BME280;36256;42.154;23.002;2023-06-01T09:08:45;97305.00;;;23.34;68.97
36630;BME280;36256;42.154;23.002;2023-06-01T09:11:12;97322.84;;;23.46;75.43
36630;BME280;36256;42.154;23.002;2023-06-01T09:13:40;97306.66;;;23.67;71.81
36630;BME280;36256;42.154;23.002;2023-06-01T09:16:07;97313.38;;;23.70;74.18
36630;BME280;36256;42.154;23.002;2023-06-01T09:18:34;97315.09;;;23.78;72.25
36630;BME280;36256;42.154;23.002;2023-06-01T09:21:14;97289.38;;;23.73;68.72
36630;BME280;36256;42.154;23.002;2023-06-01T09:23:41;97296.19;;;23.70;62.32
36630;BME280;36256;42.154;23.002;2023-06-01T09:26:13;97287.53;;;23.57;63.69
36630;BME280;36256;42.154;23.002;2023-06-01T09:28:53;97285.84;;;23.67;65.43
36630;BME280;36256;42.154;23.002;2023-06-01T09:31:35;97284.41;;;23.92;63.17
36630;BME280;36256;42.154;23.002;2023-06-01T09:34:03;97290.69;;;24.09;70.96
36630;BME280;36256;42.154;23.002;2023-06-01T09:36:32;97276.81;;;24.13;59.48
36630;BME280;36256;42.154;23.002;2023-06-01T09:39:07;97264.25;;;24.16;61.80
36630;BME280;36256;42.154;23.002;2023-06-01T09:41:53;97261.78;;;24.07;58.75
36630;BME280;36256;42.154;23.002;2023-06-01T09:44:30;97255.41;;;24.14;64.58
36630;BME280;36256;42.154;23.002;2023-06-01T09:49:44;97250.88;;;24.63;62.47
36630;BME280;36256;42.154;23.002;2023-06-01T09:52:15;97254.22;;;24.80;60.85
36630;BME280;36256;42.154;23.002;2023-06-01T09:54:50;97245.84;;;24.82;63.44
36630;BME280;36256;42.154;23.002;2023-06-01T09:57:26;97239.00;;;24.85;64.86
36630;BME280;36256;42.154;23.002;2023-06-01T09:59:53;97233.50;;;24.87;61.98
36630;BME280;36256;42.154;23.002;2023-06-01T10:02:22;97239.88;;;24.93;63.69
36630;BME280;36256;42.154;23.002;2023-06-01T10:04:54;97235.44;;;24.79;59.41
36630;BME280;36256;42.154;23.002;2023-06-01T10:07:31;97230.06;;;24.89;59.55
36630;BME280;36256;42.154;23.002;2023-06-01T10:10:00;97219.66;;;24.99;56.21
36630;BME280;36256;42.154;23.002;2023-06-01T10:12:31;97237.53;;;25.18;62.03
36630;BME280;36256;42.154;23.002;2023-06-01T10:15:00;97211.59;;;25.24;58.24
36630;BME280;36256;42.154;23.002;2023-06-01T10:17:29;97215.09;;;25.43;57.18
36630;BME280;36256;42.154;23.002;2023-06-01T10:19:57;97220.28;;;25.78;61.24
36630;BME280;36256;42.154;23.002;2023-06-01T10:22:24;97200.81;;;25.84;58.78
36630;BME280;36256;42.154;23.002;2023-06-01T10:24:55;97183.34;;;25.82;55.03
36630;BME280;36256;42.154;23.002;2023-06-01T10:27:38;97194.78;;;25.95;57.83
36630;BME280;36256;42.154;23.002;2023-06-01T10:30:10;97182.41;;;25.87;54.83
36630;BME280;36256;42.154;23.002;2023-06-01T10:35:04;97157.88;;;25.86;51.35
36630;BME280;36256;42.154;23.002;2023-06-01T10:37:31;97156.69;;;26.02;54.38
36630;BME280;36256;42.154;23.002;2023-06-01T10:42:44;97145.28;;;25.89;51.95
36630;BME280;36256;42.154;23.002;2023-06-01T10:48:02;97134.53;;;25.90;50.19
36630;BME280;36256;42.154;23.002;2023-06-01T10:50:30;97119.47;;;25.76;47.50
36630;BME280;36256;42.154;23.002;2023-06-01T10:53:23;97130.75;;;25.95;51.90
36630;BME280;36256;42.154;23.002;2023-06-01T11:01:45;97111.63;;;25.97;48.57
36630;BME280;36256;42.154;23.002;2023-06-01T11:04:13;97114.53;;;26.05;50.66
36630;BME280;36256;42.154;23.002;2023-06-01T11:06:42;97115.97;;;26.11;49.46
36630;BME280;36256;42.154;23.002;2023-06-01T11:09:12;97103.03;;;26.05;49.72
36630;BME280;36256;42.154;23.002;2023-06-01T11:14:20;97094.97;;;26.03;49.22
36630;BME280;36256;42.154;23.002;2023-06-01T11:16:49;97098.06;;;26.05;49.82
36630;BME280;36256;42.154;23.002;2023-06-01T11:19:19;97092.81;;;25.96;49.89
36630;BME280;36256;42.154;23.002;2023-06-01T11:21:47;97103.28;;;25.86;51.46
36630;BME280;36256;42.154;23.002;2023-06-01T11:24:18;97092.59;;;25.94;51.50
36630;BME280;36256;42.154;23.002;2023-06-01T11:26:49;97085.44;;;26.08;50.27
36630;BME280;36256;42.154;23.002;2023-06-01T11:29:21;97102.50;;;26.34;55.09
36630;BME280;36256;42.154;23.002;2023-06-01T11:31:57;97106.19;;;26.42;56.73
36630;BME280;36256;42.154;23.002;2023-06-01T11:36:57;97115.38;;;26.69;60.22
36630;BME280;36256;42.154;23.002;2023-06-01T11:39:26;97104.81;;;26.72;55.87
36630;BME280;36256;42.154;23.002;2023-06-01T11:42:05;97110.06;;;26.45;53.81
36630;BME280;36256;42.154;23.002;2023-06-01T11:44:33;97096.56;;;26.32;55.26
36630;BME280;36256;42.154;23.002;2023-06-01T11:47:01;97091.69;;;26.20;55.64
36630;BME280;36256;42.154;23.002;2023-06-01T11:49:27;97086.91;;;26.22;57.30
36630;BME280;36256;42.154;23.002;2023-06-01T11:51:54;97076.94;;;26.23;52.29
36630;BME280;36256;42.154;23.002;2023-06-01T11:54:24;97082.53;;;26.29;56.93
36630;BME280;36256;42.154;23.002;2023-06-01T11:56:55;97078.03;;;26.48;53.30
36630;BME280;36256;42.154;23.002;2023-06-01T11:59:24;97075.59;;;26.53;53.16
36630;BME280;36256;42.154;23.002;2023-06-01T12:01:52;97056.03;;;26.59;53.79
36630;BME280;36256;42.154;23.002;2023-06-01T12:04:22;97052.59;;;26.60;52.35
36630;BME280;36256;42.154;23.002;2023-06-01T12:06:50;97054.50;;;26.58;53.13
36630;BME280;36256;42.154;23.002;2023-06-01T12:09:18;97053.09;;;26.43;48.56
36630;BME280;36256;42.154;23.002;2023-06-01T12:11:47;97042.91;;;26.42;52.65
36630;BME280;36256;42.154;23.002;2023-06-01T12:14:14;97045.25;;;26.52;52.94
36630;BME280;36256;42.154;23.002;2023-06-01T12:16:54;97060.13;;;26.71;53.64
36630;BME280;36256;42.154;23.002;2023-06-01T12:19:22;97056.75;;;26.80;51.53
36630;BME280;36256;42.154;23.002;2023-06-01T12:21:54;97047.16;;;26.85;50.50
36630;BME280;36256;42.154;23.002;2023-06-01T12:24:32;97046.22;;;26.90;51.71
36630;BME280;36256;42.154;23.002;2023-06-01T12:27:00;97039.72;;;26.97;51.31
36630;BME280;36256;42.154;23.002;2023-06-01T12:29:44;97027.03;;;27.00;50.53
36630;BME280;36256;42.154;23.002;2023-06-01T12:32:12;97030.88;;;26.95;51.27
36630;BME280;36256;42.154;23.002;2023-06-01T12:34:40;97027.38;;;26.89;48.22
36630;BME280;36256;42.154;23.002;2023-06-01T12:37:18;97015.88;;;26.89;51.63
36630;BME280;36256;42.154;23.002;2023-06-01T12:39:55;97006.50;;;26.96;50.68
36630;BME280;36256;42.154;23.002;2023-06-01T12:42:35;96999.59;;;27.06;49.83
36630;BME280;36256;42.154;23.002;2023-06-01T12:45:04;96994.03;;;27.01;49.16
36630;BME280;36256;42.154;23.002;2023-06-01T12:47:38;96982.47;;;26.86;48.43
36630;BME280;36256;42.154;23.002;2023-06-01T12:50:07;96996.59;;;26.69;48.45
36630;BME280;36256;42.154;23.002;2023-06-01T12:52:40;96989.03;;;26.51;48.40
36630;BME280;36256;42.154;23.002;2023-06-01T12:55:08;96981.50;;;26.40;49.64
36630;BME280;36256;42.154;23.002;2023-06-01T12:57:36;96988.78;;;26.33;47.08
36630;BME280;36256;42.154;23.002;2023-06-01T13:00:06;96986.13;;;26.35;52.65
36630;BME280;36256;42.154;23.002;2023-06-01T13:02:33;96973.47;;;26.38;48.11
36630;BME280;36256;42.154;23.002;2023-06-01T13:05:02;96984.63;;;26.50;51.10
36630;BME280;36256;42.154;23.002;2023-06-01T13:07:31;96974.13;;;26.60;48.68
36630;BME280;36256;42.154;23.002;2023-06-01T13:09:58;96959.53;;;26.58;48.74
36630;BME280;36256;42.154;23.002;2023-06-01T13:12:25;96958.47;;;26.76;47.13
36630;BME280;36256;42.154;23.002;2023-06-01T13:14:54;96939.09;;;26.84;43.31
36630;BME280;36256;42.154;23.002;2023-06-01T13:17:22;96943.72;;;26.94;43.54
36630;BME280;36256;42.154;23.002;2023-06-01T13:19:49;96933.75;;;27.03;43.32
36630;BME280;36256;42.154;23.002;2023-06-01T13:22:16;96944.69;;;27.12;44.83
36630;BME280;36256;42.154;23.002;2023-06-01T13:24:42;96948.31;;;26.97;46.19
36630;BME280;36256;42.154;23.002;2023-06-01T13:27:12;96950.84;;;27.01;49.24